Tiền ảo: 37,474 Sàn giao dịch: 940 Vốn hóa: $2,678,428,456,731 Khối lượng (24h): $133,745,230,409 Thị phần: BTC: 60.4%, ETH: 10.5%
PicolPicol
Xếp hạng #557 19:45:00 07/05/2026

Khối lượng giao dịch (24h) tại Picol

$3,531,103,848 -11.45%
Cặp giao dịch 320 cặp Số coin niêm yết 313 Tiền pháp định -
Khối lượng 24 giờ $3,531,103,848 -11.45% Khối lượng 7 ngày $25,813,159,285 +21.75% Khối lượng 30 ngày $121,618,640,989 +46.74%
Khối lượng giao ngay (24h) $3,531,103,848 Khối lượng phái sinh (24h) - Điểm thanh khoản -

Các cặp đang giao dịch Giao ngay tại Picol

#TiềnCặpGiá (USD)Khối lượng (24h)Cập nhật
101 BOOK OF MEME BOOK OF MEME BOME BOME/USDT $0.0006119 $392,748 20:00:12 07/05/2026
102 Bounce Token Bounce Token AUCTION AUCTION/USDT $4.98 $389,702 20:00:12 07/05/2026
103 OG Fan Token OG Fan Token OG OG/USDT $3.12 $388,479 20:00:12 07/05/2026
104 Harvest Finance Harvest Finance FARM FARM/USDT $11.88 $376,725 20:00:12 07/05/2026
105 MovieBloc MovieBloc MBL MBL/USDT $0.0009429 $375,586 20:00:12 07/05/2026
106 NEAR Protocol NEAR Protocol NEAR NEAR/USDT $1.50 $369,089 20:00:12 07/05/2026
107 Beldex Beldex BDX BDX/USDT $0.1320 $365,799 20:00:12 07/05/2026
108 Kyber Network Crystal v2 Kyber Network Crystal v2 KNC KNC/USDT $0.1513 $365,433 20:00:12 07/05/2026
109 Beldex Beldex BDX BDX/USDC $0.1305 $359,781 20:00:12 07/05/2026
110 OKB OKB OKB OKB/USDT $87.21 $356,100 20:00:12 07/05/2026
111 Ethena Ethena ENA ENA/USDT $0.1242 $346,896 20:00:12 07/05/2026
112 Secret Secret SCRT SCRT/USDT $0.1117 $336,346 20:00:12 07/05/2026
113 ARPA ARPA ARPA ARPA/USDT $0.01051 $331,044 20:00:12 07/05/2026
114 NVIDIA tokenized stock (xStock) NVIDIA tokenized stock (xStock) NVDAX NVDAX/USDT $208.32 $322,111 20:00:12 07/05/2026
115 SuperRare SuperRare RARE RARE/USDT $0.01750 $308,868 20:00:12 07/05/2026
116 Optimism Optimism OP OP/USDT $0.1477 $305,954 20:00:12 07/05/2026
117 MOBOX MOBOX MBOX MBOX/USDT $0.01210 $305,620 20:00:12 07/05/2026
118 PlatON PlatON LAT LAT/USDT $0.001327 $302,885 20:00:12 07/05/2026
119 Astar Astar ASTR ASTR/USDT $0.008960 $300,274 20:00:12 07/05/2026
120 Osmosis Osmosis OSMO OSMO/USDT $0.03270 $292,273 20:00:12 07/05/2026
121 Aevo Aevo AEVO AEVO/USDT $0.03000 $291,685 20:00:12 07/05/2026
122 Celestia Celestia TIA TIA/USDT $0.3930 $287,401 20:00:12 07/05/2026
123 Altlayer Altlayer ALT ALT/USDT $0.008069 $286,988 20:00:12 07/05/2026
124 JasmyCoin JasmyCoin JASMY JASMY/USDT $0.005949 $286,474 20:00:12 07/05/2026
125 Metis Metis METIS METIS/USDT $3.88 $280,992 20:00:12 07/05/2026
126 Theta Network Theta Network THETA THETA/USDT $0.2131 $272,765 20:00:12 07/05/2026
127 Wealth Crypto Wealth Crypto WEALTH WEALTH/USDT $327.28 $260,691 20:00:12 07/05/2026
128 COINDEPO COINDEPO COINDEPO COINDEPO/USDT $0.07374 $260,134 20:00:12 07/05/2026
129 ether.fi ether.fi ETHFI ETHFI/USDT $0.4370 $258,660 20:00:12 07/05/2026
130 dogwifhat dogwifhat WIF WIF/USDT $0.2200 $257,900 20:00:12 07/05/2026
131 Tesla tokenized stock (xStock) Tesla tokenized stock (xStock) TSLAX TSLAX/USDT $406.11 $256,780 20:00:12 07/05/2026
132 Cosmos Cosmos ATOM ATOM/USDT $1.93 $255,528 20:00:12 07/05/2026
133 Polkadot Polkadot DOT DOT/USDT $1.33 $251,128 20:00:12 07/05/2026
134 Celo Celo CELO CELO/USDT $0.09489 $244,265 20:00:12 07/05/2026
135 Wormhole Wormhole W W/USDT $0.01470 $241,104 20:00:12 07/05/2026
136 Compound Compound COMP COMP/USDT $23.53 $236,768 20:00:12 07/05/2026
137 Adventure Gold Adventure Gold AGLD AGLD/USDT $0.2620 $235,481 20:00:12 07/05/2026
138 Convex Finance Convex Finance CVX CVX/USDT $1.76 $234,895 20:00:12 07/05/2026
139 The Sandbox The Sandbox SAND SAND/USDT $0.07869 $234,695 20:00:12 07/05/2026
140 Shentu Shentu CTK CTK/USDT $0.1897 $232,666 20:00:12 07/05/2026
141 Starknet Starknet STRK STRK/USDT $0.04310 $225,173 20:00:12 07/05/2026
142 Hyperliquid Hyperliquid HYPE HYPE/USDT $43.10 $223,261 20:00:12 07/05/2026
143 SushiSwap SushiSwap SUSHI SUSHI/USDT $0.2340 $217,580 20:00:12 07/05/2026
144 XDC Network XDC Network XDC XDC/USDC $0.02982 $217,377 20:00:12 07/05/2026
145 Sei Sei SEI SEI/USDT $0.06209 $215,072 20:00:12 07/05/2026
146 Toko Token Toko Token TKO TKO/USDT $0.06449 $198,891 20:00:12 07/05/2026
147 uTrade uTrade UTT UTT/USDT $0.3059 $195,144 20:00:12 07/05/2026
148 iExec RLC iExec RLC RLC RLC/USDT $0.4800 $190,914 20:00:12 07/05/2026
149 Contentos Contentos COS COS/USDT $0.001170 $189,853 20:00:12 07/05/2026
150 Circle tokenized stock (xStock) Circle tokenized stock (xStock) CRCLX CRCLX/USDT $119.59 $189,165 20:00:12 07/05/2026

Kết quả ở bảng trên đang hiển thị trang 3 trên tổng số 7 trang. Hiển thị kết quả từ 101 đến 150.

Trang 3/7

Giới thiệu về sàn Picol

The Picol platform focuses on a cryptocurrency trading bot service. Compliant with South Korea's Travel Rule, it operates as a centralized cryptocurrency exchange (CEX), offering a professional platform and a high-speed matching engine. Picol provides a variety of quantitative trading bots, including the spot and futures grid trading bots that are widely acclaimed in the industry. Users can select the most suitable bot based on their individual trading needs and strategies. These bots run automatically 24/7 and conduct arbitrage repeatedly, eliminating tedious investment steps for users and enabling them to launch quantitative trading strategies with a single click.
Picol maintains 100% cryptocurrency reserve backing, and its Merkle tree is regularly updated on the official website. This allows users to check the details of their assets at any time. User funds will not be misappropriated, and users can deposit and withdraw funds whenever they need.

Tổng quan nhanh về sàn Picol

Sàn Picol được xếp hạng thứ #557 trên toàn thế giới xét theo khối lượng giao dịch.

Tổng khối lượng giao dịch trong 24 giờ tại sàn Picol là $3,531,103,848, khối lượng giao dịch giảm so với ngày hôm qua 11.45%.

Hiện tại, sàn đang niêm yết 313 coin với số cặp tiền ảo đang giao dịch là 320 cặp.

Sàn Picol hỗ trợ các loại giao dịch Giao ngay.

Sàn Picol - Khối lượng giao dịch, cặp giao dịch - Danh sách cặp giao dịch Trang 3 - GiaCoin.com
4.2 trên 1024 đánh giá